Time;durP1;ratioP1;P1;durP2;ratioP2;P2;SDS_P1;SDS_P2;PMS_P1;PMS_P2;Temp;Humidity;BMP_temperature;BMP_pressure;BME280_temperature;BME280_humidity;BME280_pressure;Samples;Min_cycle;Max_cycle;Signal;HPM_P1;HPM_P2
2022/01/30 00:00:08;;;;;;;0.30;0.20;;;4.70;99.90;;;;;;4977376;28;21072;-79
2022/01/30 00:02:35;;;;;;;0.30;0.20;;;4.70;99.90;;;;;;4977571;28;20452;-79
2022/01/30 00:05:02;;;;;;;0.30;0.20;;;4.70;99.90;;;;;;4977298;28;20798;-79
2022/01/30 00:07:28;;;;;;;0.30;0.20;;;4.70;99.90;;;;;;4977548;28;20453;-82
2022/01/30 00:09:56;;;;;;;0.30;0.20;;;4.70;99.90;;;;;;4977886;28;20806;-82
2022/01/30 00:12:32;;;;;;;0.30;0.20;;;4.80;99.90;;;;;;4977093;28;20457;-82
2022/01/30 00:14:59;;;;;;;0.30;0.20;;;4.80;99.90;;;;;;4977114;28;20492;-80
2022/01/30 00:17:33;;;;;;;0.30;0.20;;;4.80;99.90;;;;;;4977645;28;20816;-79
2022/01/30 00:20:04;;;;;;;0.30;0.30;;;4.80;99.90;;;;;;4979663;28;20492;-79
2022/01/30 00:22:44;;;;;;;0.30;0.20;;;4.90;99.90;;;;;;4977814;28;20442;-79
2022/01/30 00:25:16;;;;;;;0.30;0.30;;;4.80;99.90;;;;;;4977222;28;20536;-80
2022/01/30 00:27:49;;;;;;;0.30;0.20;;;4.90;99.90;;;;;;4977251;28;20445;-79
2022/01/30 00:30:18;;;;;;;0.63;0.30;;;4.90;99.90;;;;;;4977219;28;20806;-80
2022/01/30 00:32:45;;;;;;;0.30;0.20;;;4.90;99.90;;;;;;4976789;28;20461;-80
2022/01/30 00:35:12;;;;;;;0.30;0.20;;;4.90;99.90;;;;;;4976241;28;20525;-80
2022/01/30 00:37:42;;;;;;;0.30;0.30;;;5.00;99.90;;;;;;4976082;28;20492;-80
2022/01/30 00:40:11;;;;;;;0.30;0.20;;;5.00;99.90;;;;;;4976939;28;20454;-80
2022/01/30 00:42:38;;;;;;;0.30;0.20;;;5.10;99.90;;;;;;4976721;28;20441;-80
2022/01/30 00:45:06;;;;;;;0.30;0.20;;;5.10;99.90;;;;;;4976809;28;20456;-80
2022/01/30 00:47:33;;;;;;;0.30;0.20;;;5.10;99.90;;;;;;4976912;28;20462;-79
2022/01/30 00:50:03;;;;;;;0.30;0.20;;;5.10;99.90;;;;;;4976421;28;20945;-80
2022/01/30 00:52:29;;;;;;;0.30;0.20;;;5.10;99.90;;;;;;4976736;28;20445;-80
2022/01/30 00:54:56;;;;;;;0.30;0.23;;;5.10;99.90;;;;;;4976951;28;20462;-80
2022/01/30 00:57:24;;;;;;;0.30;0.20;;;5.20;99.90;;;;;;4976315;28;20442;-80
2022/01/30 00:59:51;;;;;;;0.30;0.30;;;5.10;99.90;;;;;;4976203;28;20800;-80
2022/01/30 01:02:18;;;;;;;0.30;0.20;;;5.10;99.90;;;;;;4976270;28;20917;-80
2022/01/30 01:04:46;;;;;;;0.30;0.20;;;5.10;99.90;;;;;;4976464;28;20456;-80
2022/01/30 01:07:19;;;;;;;0.30;0.20;;;5.20;99.90;;;;;;4976275;28;20831;-80
2022/01/30 01:09:53;;;;;;;0.30;0.30;;;5.20;99.90;;;;;;4976474;28;20898;-80
2022/01/30 01:23:20;;;;;;;0.30;0.30;;;5.10;99.90;;;;;;4976227;28;20808;-79
2022/01/30 01:23:49;;;;;;;0.30;0.20;;;5.00;99.90;;;;;;4975659;28;20897;-80
2022/01/30 01:26:16;;;;;;;0.30;0.30;;;5.10;99.90;;;;;;4975766;28;20988;-80
2022/01/30 01:28:43;;;;;;;0.30;0.20;;;5.10;99.90;;;;;;4975766;28;20949;-80
2022/01/30 01:31:11;;;;;;;0.30;0.30;;;5.10;99.90;;;;;;4975887;28;20941;-80
2022/01/30 01:33:51;;;;;;;0.30;0.20;;;5.10;99.90;;;;;;4975767;28;20810;-79
2022/01/30 01:36:18;;;;;;;0.30;0.30;;;5.00;99.90;;;;;;4975702;28;20557;-80
2022/01/30 01:38:45;;;;;;;0.30;0.20;;;5.10;99.90;;;;;;4975953;28;20489;-80
2022/01/30 01:41:14;;;;;;;0.30;0.20;;;5.10;99.90;;;;;;4975575;28;20434;-80
2022/01/30 01:43:41;;;;;;;0.30;0.20;;;5.10;99.90;;;;;;4975755;28;20492;-80
2022/01/30 01:46:14;;;;;;;0.30;0.20;;;5.10;99.90;;;;;;4975698;28;20476;-84
2022/01/30 01:48:44;;;;;;;0.30;0.20;;;5.10;99.90;;;;;;4975594;28;20450;-84
2022/01/30 01:51:17;;;;;;;0.30;0.20;;;5.10;99.90;;;;;;4975361;28;20857;-84
2022/01/30 01:53:44;;;;;;;0.30;0.20;;;5.10;99.90;;;;;;4975650;28;20438;-84
2022/01/30 01:56:13;;;;;;;0.30;0.20;;;5.10;99.90;;;;;;4975178;28;20469;-84
2022/01/30 01:58:40;;;;;;;0.30;0.20;;;5.10;99.90;;;;;;4975401;28;20492;-84
2022/01/30 02:01:08;;;;;;;0.30;0.20;;;5.10;99.90;;;;;;4975266;28;20458;-83
2022/01/30 02:03:36;;;;;;;0.30;0.20;;;5.20;99.90;;;;;;4975400;28;20456;-83
2022/01/30 02:06:06;;;;;;;0.30;0.20;;;5.10;99.90;;;;;;4975321;28;20843;-83
2022/01/30 02:08:36;;;;;;;0.30;0.20;;;5.00;99.90;;;;;;4975346;28;20496;-83
2022/01/30 02:11:06;;;;;;;0.30;0.20;;;5.00;99.90;;;;;;4975020;28;20442;-79
2022/01/30 02:13:48;;;;;;;0.30;0.20;;;5.00;99.90;;;;;;4975046;28;20851;-79
2022/01/30 02:24:49;;;;;;;0.30;0.20;;;5.00;99.90;;;;;;4974893;28;20425;-79
2022/01/30 02:27:23;;;;;;;0.30;0.20;;;5.00;99.90;;;;;;4975054;28;20436;-79
2022/01/30 02:29:50;;;;;;;0.30;0.30;;;5.00;99.90;;;;;;4975523;28;20626;-79
2022/01/30 02:32:17;;;;;;;0.40;0.30;;;4.90;99.90;;;;;;4974931;28;20809;-79
2022/01/30 02:34:44;;;;;;;0.30;0.30;;;4.90;99.90;;;;;;4974614;28;20444;-79
2022/01/30 02:37:12;;;;;;;0.30;0.30;;;4.90;99.90;;;;;;4974834;28;20826;-79
2022/01/30 02:39:39;;;;;;;0.30;0.20;;;4.90;99.90;;;;;;4974796;28;20481;-79
2022/01/30 02:42:07;;;;;;;0.30;0.30;;;4.90;99.90;;;;;;4974532;28;20843;-82
2022/01/30 02:44:39;;;;;;;0.30;0.20;;;4.90;99.90;;;;;;4974457;28;20944;-82
2022/01/30 02:47:09;;;;;;;0.30;0.20;;;4.90;99.90;;;;;;4974678;28;20505;-82
2022/01/30 02:49:46;;;;;;;1.83;1.13;;;4.90;99.90;;;;;;4974438;28;20966;-79
2022/01/30 02:52:14;;;;;;;0.30;0.20;;;4.90;99.90;;;;;;4974357;28;20441;-81
2022/01/30 02:54:41;;;;;;;0.30;0.20;;;4.90;99.90;;;;;;4974628;28;20462;-81
2022/01/30 02:57:10;;;;;;;0.30;0.20;;;4.90;99.90;;;;;;4974580;28;20473;-82
2022/01/30 02:59:37;;;;;;;0.30;0.20;;;4.90;99.90;;;;;;4974145;28;20489;-82
2022/01/30 03:02:05;;;;;;;0.30;0.20;;;4.90;99.90;;;;;;4977228;28;20453;-82
2022/01/30 03:04:32;;;;;;;0.30;0.30;;;4.80;99.90;;;;;;4974720;28;20886;-79
2022/01/30 03:06:58;;;;;;;0.30;0.20;;;4.90;99.90;;;;;;4974477;28;20469;-82
2022/01/30 03:09:25;;;;;;;0.30;0.20;;;4.90;99.90;;;;;;4974225;28;20953;-82
2022/01/30 03:11:52;;;;;;;0.30;0.30;;;5.00;99.90;;;;;;4974192;28;20456;-79
2022/01/30 03:14:20;;;;;;;0.30;0.20;;;5.00;99.90;;;;;;4974223;28;20496;-79
2022/01/30 03:16:47;;;;;;;0.30;0.20;;;5.00;99.90;;;;;;4974390;28;20473;-79
2022/01/30 03:19:13;;;;;;;0.30;0.20;;;5.00;99.90;;;;;;4974219;28;20507;-79
2022/01/30 03:21:40;;;;;;;0.30;0.20;;;4.90;99.90;;;;;;4974396;28;20828;-79
2022/01/30 03:24:07;;;;;;;0.30;0.20;;;4.90;99.90;;;;;;4974425;28;20456;-79
2022/01/30 03:26:38;;;;;;;0.30;0.20;;;4.90;99.90;;;;;;4974085;28;20468;-79
2022/01/30 03:29:06;;;;;;;0.30;0.20;;;4.90;99.90;;;;;;4974452;28;20473;-82
2022/01/30 03:31:35;;;;;;;0.30;0.30;;;4.90;99.90;;;;;;4974309;28;20512;-82
2022/01/30 03:34:02;;;;;;;0.30;0.20;;;4.90;99.90;;;;;;4974310;28;20438;-82
2022/01/30 03:36:29;;;;;;;0.30;0.20;;;4.90;99.90;;;;;;4974039;28;21008;-82
2022/01/30 03:38:56;;;;;;;0.30;0.20;;;5.00;99.90;;;;;;4974162;28;20485;-82
2022/01/30 03:41:23;;;;;;;0.30;0.20;;;5.00;99.90;;;;;;4973949;28;20952;-83
2022/01/30 03:43:49;;;;;;;0.30;0.30;;;5.00;99.90;;;;;;4973903;28;20979;-82
2022/01/30 03:46:18;;;;;;;0.30;0.23;;;4.90;99.90;;;;;;4974146;28;20484;-82
2022/01/30 03:48:46;;;;;;;0.30;0.30;;;4.90;99.90;;;;;;4973903;28;20437;-80
2022/01/30 03:51:13;;;;;;;0.30;0.20;;;4.90;99.90;;;;;;4973833;28;20449;-80
2022/01/30 03:53:40;;;;;;;0.30;0.20;;;4.90;99.90;;;;;;4974104;28;20457;-79
2022/01/30 03:56:07;;;;;;;0.40;0.30;;;4.90;99.90;;;;;;4974011;28;20469;-80
2022/01/30 03:58:35;;;;;;;0.30;0.30;;;4.90;99.90;;;;;;4973676;28;20945;-79
2022/01/30 04:01:02;;;;;;;0.30;0.20;;;4.90;99.90;;;;;;4973753;28;20953;-80
2022/01/30 04:03:29;;;;;;;0.30;0.20;;;4.90;99.90;;;;;;4974016;28;20465;-80
2022/01/30 04:05:57;;;;;;;0.43;0.33;;;4.90;99.90;;;;;;4973634;28;20465;-80
2022/01/30 04:08:24;;;;;;;0.30;0.30;;;4.90;99.90;;;;;;4973730;28;20460;-79
2022/01/30 04:10:51;;;;;;;0.30;0.20;;;5.00;99.90;;;;;;4975452;28;20457;-79
2022/01/30 04:13:18;;;;;;;0.30;0.20;;;5.00;99.90;;;;;;4977286;28;20460;-80
2022/01/30 04:15:46;;;;;;;0.30;0.30;;;5.00;99.90;;;;;;4976890;28;20493;-80
2022/01/30 04:18:13;;;;;;;0.30;0.20;;;5.00;99.90;;;;;;4977124;28;20440;-80
2022/01/30 04:20:40;;;;;;;0.30;0.20;;;5.10;99.90;;;;;;4977303;28;20495;-82
2022/01/30 04:23:09;;;;;;;0.30;0.20;;;5.10;99.90;;;;;;4977241;28;20462;-82
2022/01/30 04:25:35;;;;;;;0.30;0.20;;;5.10;99.90;;;;;;4977146;28;20477;-79
2022/01/30 04:28:03;;;;;;;0.30;0.20;;;5.10;99.90;;;;;;4977183;28;20450;-83
2022/01/30 04:30:30;;;;;;;0.30;0.20;;;5.10;99.90;;;;;;4977148;28;20457;-82
2022/01/30 04:32:57;;;;;;;0.30;0.20;;;5.10;99.90;;;;;;4977116;28;20449;-82
2022/01/30 04:35:27;;;;;;;0.30;0.20;;;5.10;99.90;;;;;;4976684;28;20850;-79
2022/01/30 04:38:05;;;;;;;0.30;0.20;;;5.00;99.90;;;;;;4976985;28;20500;-79
2022/01/30 04:41:04;;;;;;;0.30;0.30;;;5.00;99.90;;;;;;4976628;28;20469;-79
2022/01/30 04:55:13;;;;;;;0.30;0.23;;;5.10;99.90;;;;;;4976845;28;20456;-80
2022/01/30 04:57:50;;;;;;;0.50;0.50;;;5.10;99.90;;;;;;4976189;28;20473;-80
2022/01/30 05:00:32;;;;;;;0.30;0.20;;;5.10;99.90;;;;;;4976603;28;20678;-79
2022/01/30 05:03:08;;;;;;;0.30;0.30;;;5.10;99.90;;;;;;4976600;28;20476;-80
2022/01/30 05:05:52;;;;;;;1.17;0.37;;;5.10;99.90;;;;;;4976457;28;20480;-80
2022/01/30 05:08:19;;;;;;;0.30;0.20;;;5.10;99.90;;;;;;4976521;28;20441;-79
2022/01/30 05:10:46;;;;;;;0.30;0.20;;;5.10;99.90;;;;;;4976513;28;20456;-79
2022/01/30 05:13:18;;;;;;;0.30;0.20;;;5.00;99.90;;;;;;4976332;28;20448;-80
2022/01/30 05:15:46;;;;;;;0.30;0.20;;;5.10;99.90;;;;;;4975781;28;20481;-80
2022/01/30 05:18:18;;;;;;;0.30;0.30;;;5.10;99.90;;;;;;4976655;28;20964;-80
2022/01/30 05:20:45;;;;;;;0.30;0.30;;;5.10;99.90;;;;;;4976736;28;20497;-80
2022/01/30 05:23:12;;;;;;;0.30;0.20;;;5.10;99.90;;;;;;4975249;28;20968;-80
2022/01/30 05:25:40;;;;;;;0.30;0.30;;;5.00;99.90;;;;;;4975800;28;20488;-80
2022/01/30 05:28:08;;;;;;;0.30;0.20;;;5.00;99.90;;;;;;4976051;28;20453;-80
2022/01/30 05:30:38;;;;;;;0.30;0.20;;;4.90;99.90;;;;;;4976024;28;20872;-82
2022/01/30 05:33:05;;;;;;;0.30;0.20;;;4.90;99.90;;;;;;4975944;28;20454;-82
2022/01/30 05:35:32;;;;;;;0.30;0.20;;;4.80;99.90;;;;;;4975643;28;20988;-82
2022/01/30 05:37:59;;;;;;;0.30;0.20;;;4.70;99.90;;;;;;4975621;28;20438;-82
2022/01/30 05:40:27;;;;;;;0.30;0.20;;;4.70;99.90;;;;;;4975433;28;20484;-82
2022/01/30 05:42:54;;;;;;;0.60;0.43;;;4.70;99.90;;;;;;4975561;28;20434;-83
2022/01/30 05:45:29;;;;;;;0.30;0.20;;;4.60;99.90;;;;;;4975454;28;20870;-82
2022/01/30 05:48:00;;;;;;;0.30;0.20;;;4.60;99.90;;;;;;4975421;28;20952;-82
2022/01/30 05:50:28;;;;;;;0.30;0.20;;;4.60;99.90;;;;;;4975713;28;20438;-82
2022/01/30 05:52:55;;;;;;;0.30;0.20;;;4.70;99.90;;;;;;4975363;28;20960;-82
2022/01/30 05:55:22;;;;;;;0.70;0.40;;;4.70;99.90;;;;;;4975515;28;20845;-82
2022/01/30 05:57:48;;;;;;;0.30;0.20;;;4.70;99.90;;;;;;4975263;28;20437;-82
2022/01/30 06:00:16;;;;;;;0.40;0.33;;;4.70;99.90;;;;;;4975161;28;20848;-82
2022/01/30 06:02:44;;;;;;;0.30;0.20;;;4.70;99.90;;;;;;4975444;28;20450;-82
2022/01/30 06:05:14;;;;;;;0.30;0.30;;;4.70;99.90;;;;;;4975042;28;20481;-80
2022/01/30 06:07:48;;;;;;;0.30;0.30;;;4.70;99.90;;;;;;4975616;28;20449;-80
2022/01/30 06:10:15;;;;;;;0.30;0.20;;;4.70;99.90;;;;;;4975352;28;20786;-80
2022/01/30 06:12:41;;;;;;;0.30;0.20;;;4.70;99.90;;;;;;4974998;28;20947;-80
2022/01/30 06:15:10;;;;;;;0.30;0.20;;;4.70;99.90;;;;;;4974804;28;20493;-80
2022/01/30 06:17:37;;;;;;;0.30;0.20;;;4.70;99.90;;;;;;4975176;28;20453;-79
2022/01/30 06:20:05;;;;;;;0.30;0.30;;;4.70;99.90;;;;;;4974786;28;20504;-79
2022/01/30 06:22:33;;;;;;;0.30;0.30;;;4.70;99.90;;;;;;4975097;28;20455;-80
2022/01/30 06:25:00;;;;;;;0.30;0.20;;;4.70;99.90;;;;;;4974688;28;20454;-80
2022/01/30 06:27:27;;;;;;;0.30;0.20;;;4.60;99.90;;;;;;4974901;28;20448;-80
2022/01/30 06:29:53;;;;;;;0.30;0.20;;;4.70;99.90;;;;;;4974684;28;20985;-80
2022/01/30 06:32:20;;;;;;;0.30;0.20;;;4.60;99.90;;;;;;4974731;28;20438;-80
2022/01/30 06:34:47;;;;;;;1.07;1.03;;;4.60;99.90;;;;;;4974761;28;20438;-80
2022/01/30 06:37:14;;;;;;;0.30;0.30;;;4.60;99.90;;;;;;4974901;28;20456;-82
2022/01/30 06:39:42;;;;;;;0.30;0.20;;;4.60;99.90;;;;;;4974485;28;20481;-83
2022/01/30 06:42:09;;;;;;;0.30;0.30;;;4.50;99.90;;;;;;4974631;28;20454;-83
2022/01/30 06:44:37;;;;;;;0.30;0.20;;;4.50;99.90;;;;;;4974846;28;20452;-83
2022/01/30 06:47:04;;;;;;;0.30;0.30;;;4.50;99.90;;;;;;4974702;28;20564;-83
2022/01/30 06:49:31;;;;;;;0.30;0.20;;;4.50;99.90;;;;;;4974742;28;20422;-83
2022/01/30 06:51:58;;;;;;;0.30;0.20;;;4.60;99.90;;;;;;4974681;28;20820;-83
2022/01/30 06:54:25;;;;;;;0.30;0.20;;;4.50;99.90;;;;;;4974679;28;20543;-83
2022/01/30 06:56:53;;;;;;;0.40;0.30;;;4.50;99.90;;;;;;4974696;28;20524;-83
2022/01/30 06:59:20;;;;;;;0.70;0.70;;;4.50;99.90;;;;;;4974224;28;20453;-83
2022/01/30 07:01:48;;;;;;;0.30;0.30;;;4.40;99.90;;;;;;4974573;28;20453;-83
2022/01/30 07:04:15;;;;;;;0.30;0.20;;;4.40;99.90;;;;;;4974998;28;20462;-83
2022/01/30 07:06:41;;;;;;;0.30;0.20;;;4.40;99.90;;;;;;4974283;28;20457;-83
2022/01/30 07:09:08;;;;;;;0.30;0.20;;;4.40;99.90;;;;;;4974519;28;20464;-83
2022/01/30 07:11:35;;;;;;;0.30;0.30;;;4.30;99.90;;;;;;4974494;28;20452;-82
2022/01/30 07:14:03;;;;;;;0.30;0.20;;;4.20;99.90;;;;;;4974000;28;20481;-82
2022/01/30 07:16:30;;;;;;;0.30;0.30;;;4.20;99.90;;;;;;4974222;28;20470;-82
2022/01/30 07:18:57;;;;;;;0.70;0.70;;;4.20;99.90;;;;;;4974517;28;20418;-81
2022/01/30 07:21:24;;;;;;;0.30;0.30;;;4.10;99.90;;;;;;4974001;28;21038;-80
2022/01/30 07:23:51;;;;;;;0.30;0.20;;;4.10;99.90;;;;;;4974127;28;20437;-80
2022/01/30 07:26:17;;;;;;;0.30;0.20;;;4.10;99.90;;;;;;4974074;28;20461;-80
2022/01/30 07:28:44;;;;;;;0.53;0.40;;;4.10;99.90;;;;;;4974105;28;20437;-80
2022/01/30 07:31:12;;;;;;;0.30;0.20;;;4.00;99.90;;;;;;4974760;28;20449;-82
2022/01/30 07:33:40;;;;;;;0.30;0.20;;;4.00;99.90;;;;;;4974714;28;20457;-82
2022/01/30 07:36:08;;;;;;;0.30;0.20;;;4.00;99.90;;;;;;4974251;28;20472;-82
2022/01/30 07:38:35;;;;;;;0.40;0.30;;;4.00;99.90;;;;;;4974211;28;20460;-82
2022/01/30 07:41:02;;;;;;;0.30;0.20;;;4.10;99.90;;;;;;4974167;28;20492;-82
2022/01/30 07:43:30;;;;;;;0.30;0.20;;;4.20;99.90;;;;;;4973961;28;20810;-82
2022/01/30 07:45:57;;;;;;;0.30;0.30;;;4.20;99.90;;;;;;4975737;28;20476;-82
2022/01/30 07:48:25;;;;;;;0.30;0.30;;;4.30;99.90;;;;;;4977981;28;20429;-83
2022/01/30 07:50:52;;;;;;;0.30;0.20;;;4.40;99.90;;;;;;4977933;28;21028;-84
2022/01/30 07:53:18;;;;;;;0.30;0.20;;;4.40;99.90;;;;;;4977564;28;20429;-83
2022/01/30 07:55:45;;;;;;;0.30;0.30;;;4.40;99.90;;;;;;4977626;28;20464;-83
2022/01/30 07:58:12;;;;;;;0.40;0.30;;;4.40;99.90;;;;;;4977772;28;20441;-83
2022/01/30 08:00:39;;;;;;;0.30;0.20;;;4.40;99.90;;;;;;4977351;28;21027;-83
2022/01/30 08:03:05;;;;;;;0.40;0.30;;;4.40;99.90;;;;;;4977706;28;20775;-84
2022/01/30 08:05:34;;;;;;;0.30;0.30;;;4.40;99.90;;;;;;4977216;28;20481;-83
2022/01/30 08:08:00;;;;;;;0.30;0.30;;;4.40;99.90;;;;;;4977615;28;20433;-83
2022/01/30 08:10:27;;;;;;;0.30;0.20;;;4.50;99.90;;;;;;4977927;28;20445;-83
2022/01/30 08:12:54;;;;;;;0.40;0.40;;;4.50;99.90;;;;;;4977379;28;20817;-83
2022/01/30 08:15:21;;;;;;;0.30;0.20;;;4.60;99.90;;;;;;4977085;28;20547;-83
2022/01/30 08:17:48;;;;;;;0.37;0.37;;;4.50;99.90;;;;;;4977403;28;20434;-83
2022/01/30 08:20:15;;;;;;;0.30;0.30;;;4.50;99.90;;;;;;4977339;28;20847;-83
2022/01/30 08:22:50;;;;;;;0.30;0.30;;;4.50;99.90;;;;;;4977605;28;20436;-83
2022/01/30 08:25:17;;;;;;;0.30;0.20;;;4.60;99.90;;;;;;4977234;28;20838;-83
2022/01/30 08:27:44;;;;;;;14.43;1.07;;;4.60;99.90;;;;;;4977079;28;20461;-84
2022/01/30 08:30:11;;;;;;;0.30;0.20;;;4.70;99.90;;;;;;4977195;28;20445;-84
2022/01/30 08:32:39;;;;;;;0.30;0.30;;;4.70;99.90;;;;;;4976886;28;20444;-84
2022/01/30 08:35:07;;;;;;;0.30;0.30;;;4.90;99.90;;;;;;4976976;28;20465;-84
2022/01/30 08:37:36;;;;;;;0.50;0.27;;;5.00;99.90;;;;;;4977065;28;20449;-84
2022/01/30 08:40:05;;;;;;;0.30;0.20;;;5.10;99.90;;;;;;4976966;28;20540;-84
2022/01/30 08:42:32;;;;;;;0.30;0.30;;;5.30;99.90;;;;;;4977272;28;20472;-84
2022/01/30 08:44:58;;;;;;;0.30;0.20;;;5.40;99.90;;;;;;4977389;28;20886;-83
2022/01/30 08:47:25;;;;;;;0.40;0.30;;;5.60;99.90;;;;;;4976611;28;20442;-84
2022/01/30 08:49:52;;;;;;;0.30;0.30;;;5.70;99.90;;;;;;4976851;28;20449;-84
2022/01/30 08:52:19;;;;;;;0.30;0.20;;;5.90;99.90;;;;;;4976822;28;20453;-84
2022/01/30 08:54:46;;;;;;;0.30;0.30;;;6.20;99.90;;;;;;4976754;28;20453;-84
2022/01/30 08:57:14;;;;;;;0.30;0.30;;;6.50;99.90;;;;;;4975575;28;20489;-84
2022/01/30 08:59:41;;;;;;;0.40;0.30;;;6.90;99.90;;;;;;4976687;28;20445;-84
2022/01/30 09:02:09;;;;;;;0.30;0.20;;;7.60;99.90;;;;;;4976525;28;20493;-84
2022/01/30 09:04:35;;;;;;;0.30;0.30;;;8.30;99.90;;;;;;4976505;28;20453;-84
2022/01/30 09:07:03;;;;;;;0.60;0.60;;;9.00;99.90;;;;;;4976491;28;20474;-84
2022/01/30 09:09:31;;;;;;;0.47;0.47;;;9.90;99.90;;;;;;4976498;28;20454;-84
2022/01/30 09:11:58;;;;;;;0.57;0.27;;;10.90;99.90;;;;;;4976110;28;20984;-84
2022/01/30 09:14:26;;;;;;;0.30;0.30;;;11.90;99.90;;;;;;4976006;28;20544;-84
2022/01/30 09:16:53;;;;;;;0.93;0.93;;;12.40;99.90;;;;;;4976262;28;20477;-84
2022/01/30 09:19:20;;;;;;;0.40;0.30;;;12.90;99.90;;;;;;4976023;28;20533;-81
2022/01/30 09:21:47;;;;;;;0.40;0.37;;;13.30;99.90;;;;;;4976081;28;20489;-81
2022/01/30 09:24:14;;;;;;;0.30;0.20;;;13.30;99.90;;;;;;4975878;28;20973;-81
2022/01/30 09:26:41;;;;;;;0.50;0.50;;;13.00;99.90;;;;;;4976025;28;20481;-79
2022/01/30 09:29:07;;;;;;;0.40;0.30;;;12.30;99.90;;;;;;4976086;28;20450;-81
2022/01/30 09:31:35;;;;;;;0.40;0.30;;;11.60;99.90;;;;;;4976024;28;20454;-81
2022/01/30 09:34:02;;;;;;;0.50;0.40;;;11.00;99.90;;;;;;4975963;28;20457;-81
2022/01/30 09:36:29;;;;;;;0.67;0.67;;;10.50;99.90;;;;;;4975576;28;20477;-81
2022/01/30 09:38:56;;;;;;;1.57;0.40;;;9.80;99.90;;;;;;4975880;28;20538;-80
2022/01/30 09:41:26;;;;;;;0.37;0.30;;;9.20;99.90;;;;;;4975461;28;20855;-80
2022/01/30 09:43:53;;;;;;;0.40;0.30;;;8.70;99.90;;;;;;4975862;28;20445;-81
2022/01/30 09:46:20;;;;;;;0.50;0.40;;;8.20;99.90;;;;;;4975697;28;20484;-80
2022/01/30 09:48:52;;;;;;;1.87;1.67;;;8.00;99.90;;;;;;4975447;28;20429;-81
2022/01/30 09:51:19;;;;;;;0.40;0.30;;;7.80;99.90;;;;;;4975702;28;20441;-81
2022/01/30 09:53:45;;;;;;;0.67;0.67;;;7.70;99.90;;;;;;4975314;28;20450;-81
2022/01/30 09:56:12;;;;;;;0.30;0.30;;;7.60;99.90;;;;;;4975462;28;20477;-80
2022/01/30 09:58:39;;;;;;;0.30;0.30;;;7.50;99.90;;;;;;4975299;28;20438;-80
2022/01/30 10:01:06;;;;;;;0.30;0.20;;;7.30;99.90;;;;;;4975141;28;20882;-83
2022/01/30 10:03:34;;;;;;;0.30;0.30;;;7.30;99.90;;;;;;4975448;28;20458;-82
2022/01/30 10:06:08;;;;;;;1.33;0.33;;;7.20;99.90;;;;;;4975400;28;20878;-82
2022/01/30 10:08:42;;;;;;;0.37;0.30;;;7.10;99.90;;;;;;4975385;28;20433;-82
2022/01/30 10:11:27;;;;;;;0.50;0.50;;;7.60;99.90;;;;;;4975594;28;20521;-82
2022/01/30 10:14:03;;;;;;;0.30;0.20;;;7.90;99.90;;;;;;4975097;28;20552;-82
2022/01/30 10:16:35;;;;;;;0.30;0.30;;;7.90;99.90;;;;;;4974909;28;20480;-82
2022/01/30 10:19:10;;;;;;;0.30;0.20;;;7.80;99.90;;;;;;4975511;28;20420;-82
2022/01/30 10:21:38;;;;;;;2.63;2.53;;;7.70;99.90;;;;;;4975133;28;20584;-82
2022/01/30 10:24:29;;;;;;;0.30;0.20;;;8.50;99.90;;;;;;4974921;28;20441;-83
2022/01/30 10:26:59;;;;;;;0.93;0.40;;;9.80;99.90;;;;;;4972931;28;20512;-83
2022/01/30 10:29:28;;;;;;;0.40;0.30;;;10.40;99.90;;;;;;4974893;28;20457;-83
2022/01/30 10:31:59;;;;;;;0.30;0.30;;;10.60;99.90;;;;;;4974748;28;20437;-81
2022/01/30 10:34:27;;;;;;;1.77;0.87;;;10.40;99.90;;;;;;4974934;28;20457;-80
2022/01/30 10:37:14;;;;;;;0.40;0.30;;;10.50;99.90;;;;;;4974602;28;20857;-81
2022/01/30 10:40:00;;;;;;;0.30;0.20;;;10.70;99.90;;;;;;4975602;28;20455;-80
2022/01/30 10:42:41;;;;;;;0.40;0.33;;;10.80;99.90;;;;;;4974465;28;20560;-80
2022/01/30 10:45:11;;;;;;;0.47;0.30;;;10.70;99.90;;;;;;4974732;28;20459;-80
2022/01/30 10:47:38;;;;;;;0.30;0.20;;;10.80;99.90;;;;;;4974497;28;20465;-81
2022/01/30 10:50:13;;;;;;;0.30;0.30;;;11.10;99.90;;;;;;4974474;28;20446;-80
2022/01/30 10:52:54;;;;;;;0.40;0.30;;;11.30;99.90;;;;;;4974681;28;20453;-79
2022/01/30 10:55:33;;;;;;;0.30;0.30;;;11.50;99.90;;;;;;4974602;28;20469;-80
2022/01/30 10:58:02;;;;;;;0.47;0.47;;;11.80;99.90;;;;;;4974447;28;20433;-80
2022/01/30 11:00:41;;;;;;;1.27;0.40;;;11.90;99.90;;;;;;4974079;28;20461;-80
2022/01/30 11:03:09;;;;;;;0.40;0.40;;;11.80;99.90;;;;;;4974068;28;20457;-80
2022/01/30 11:05:55;;;;;;;0.40;0.30;;;11.60;99.90;;;;;;4974297;28;20477;-79
2022/01/30 11:08:24;;;;;;;0.40;0.30;;;11.30;99.90;;;;;;4974301;28;20469;-79
2022/01/30 11:11:03;;;;;;;0.30;0.30;;;11.10;99.90;;;;;;4974308;28;20449;-80
2022/01/30 11:13:33;;;;;;;0.40;0.30;;;11.00;99.90;;;;;;4974476;28;20432;-80
2022/01/30 11:18:43;;;;;;;0.30;0.30;;;10.90;99.90;;;;;;4973603;28;20477;-81
2022/01/30 11:21:10;;;;;;;0.30;0.30;;;10.70;99.90;;;;;;4976118;28;21012;-81
2022/01/30 11:23:41;;;;;;;5.03;0.80;;;10.60;99.90;;;;;;4978294;28;20460;-81
2022/01/30 11:26:09;;;;;;;0.50;0.30;;;10.60;99.90;;;;;;4978186;28;20477;-80
2022/01/30 11:28:37;;;;;;;0.30;0.20;;;10.70;99.90;;;;;;4978043;28;20461;-81
2022/01/30 11:31:05;;;;;;;0.30;0.27;;;10.60;99.90;;;;;;4977937;28;20949;-80
2022/01/30 11:33:32;;;;;;;0.40;0.30;;;10.40;99.90;;;;;;4978223;28;20449;-80
2022/01/30 11:35:59;;;;;;;0.40;0.33;;;10.40;99.90;;;;;;4978138;28;20465;-81
2022/01/30 11:38:26;;;;;;;0.30;0.30;;;10.30;99.90;;;;;;4978437;28;20425;-80
2022/01/30 11:41:12;;;;;;;0.30;0.30;;;10.10;99.90;;;;;;4977969;28;20452;-81
2022/01/30 11:43:39;;;;;;;0.30;0.27;;;10.00;99.90;;;;;;4977978;28;20484;-81
2022/01/30 11:46:14;;;;;;;0.40;0.30;;;10.00;99.90;;;;;;4977589;28;21023;-80
2022/01/30 11:48:41;;;;;;;0.30;0.30;;;10.10;99.90;;;;;;4977938;28;20468;-82
2022/01/30 11:51:08;;;;;;;0.40;0.40;;;9.90;99.90;;;;;;4977852;28;20465;-82
2022/01/30 11:53:36;;;;;;;0.30;0.20;;;9.90;99.90;;;;;;4977860;28;20456;-82
2022/01/30 11:56:05;;;;;;;0.40;0.30;;;9.80;99.90;;;;;;4978206;28;20473;-86
2022/01/30 11:58:49;;;;;;;0.30;0.30;;;9.60;99.90;;;;;;4978058;28;20460;-81
2022/01/30 12:01:35;;;;;;;0.40;0.30;;;9.50;99.90;;;;;;4977412;28;20979;-81
2022/01/30 12:04:09;;;;;;;0.30;0.30;;;9.30;99.90;;;;;;4977677;28;20442;-81
2022/01/30 12:06:37;;;;;;;0.40;0.30;;;8.90;99.90;;;;;;4977631;28;20559;-81
2022/01/30 12:09:19;;;;;;;0.30;0.20;;;8.70;99.90;;;;;;4977346;28;20448;-81
2022/01/30 12:12:10;;;;;;;0.30;0.20;;;8.50;99.90;;;;;;4977564;28;20484;-81
2022/01/30 12:14:59;;;;;;;0.30;0.20;;;8.20;99.90;;;;;;4976899;28;21008;-81
2022/01/30 12:17:50;;;;;;;0.30;0.30;;;8.10;99.90;;;;;;4977484;28;20438;-82
2022/01/30 12:20:18;;;;;;;0.30;0.30;;;7.90;99.90;;;;;;4977399;28;20458;-82
2022/01/30 12:22:45;;;;;;;1.20;1.20;;;7.70;99.90;;;;;;4977312;28;20470;-81
2022/01/30 12:25:36;;;;;;;0.30;0.20;;;7.60;99.90;;;;;;4977280;28;20465;-81
2022/01/30 12:28:14;;;;;;;0.30;0.20;;;7.50;99.90;;;;;;4976969;28;20944;-81
2022/01/30 12:30:52;;;;;;;0.30;0.20;;;7.30;99.90;;;;;;4977311;28;20490;-81
2022/01/30 12:33:45;;;;;;;0.30;0.30;;;7.10;99.90;;;;;;4976897;28;20434;-81
2022/01/30 12:36:17;;;;;;;0.40;0.30;;;7.10;99.90;;;;;;4976939;28;20473;-81
2022/01/30 12:38:45;;;;;;;0.40;0.30;;;7.00;99.90;;;;;;4977114;28;20437;-81
2022/01/30 12:41:16;;;;;;;0.30;0.20;;;6.90;99.90;;;;;;4976950;28;20433;-81
2022/01/30 12:43:43;;;;;;;0.30;0.30;;;6.80;99.90;;;;;;4976779;28;20446;-82
2022/01/30 12:46:13;;;;;;;0.30;0.20;;;6.90;99.90;;;;;;4978671;28;20471;-82
2022/01/30 12:48:40;;;;;;;0.70;0.50;;;6.80;99.90;;;;;;4978549;28;20419;-82
2022/01/30 12:51:13;;;;;;;0.30;0.20;;;6.90;99.90;;;;;;4976882;28;20449;-82
2022/01/30 12:53:42;;;;;;;0.30;0.30;;;6.80;99.90;;;;;;4976890;28;20476;-82
2022/01/30 12:56:09;;;;;;;0.47;0.47;;;6.80;99.90;;;;;;4976624;28;20476;-82
2022/01/30 12:58:41;;;;;;;0.33;0.27;;;6.80;99.90;;;;;;4976703;28;20450;-82
2022/01/30 13:01:15;;;;;;;0.30;0.20;;;6.80;99.90;;;;;;4976603;28;20451;-82
2022/01/30 13:03:42;;;;;;;0.30;0.30;;;6.70;99.90;;;;;;4976865;28;20444;-82
2022/01/30 13:06:09;;;;;;;0.30;0.20;;;6.70;99.90;;;;;;4976212;28;20458;-82
2022/01/30 13:08:49;;;;;;;0.33;0.33;;;6.60;99.90;;;;;;4976505;28;20453;-82
2022/01/30 13:11:21;;;;;;;0.87;0.40;;;6.50;99.90;;;;;;4976460;28;20434;-82
2022/01/30 13:13:55;;;;;;;0.30;0.20;;;6.60;99.90;;;;;;4976421;28;20481;-85
2022/01/30 13:16:24;;;;;;;0.30;0.20;;;6.50;99.90;;;;;;4976077;28;20975;-80
2022/01/30 13:18:51;;;;;;;0.30;0.30;;;6.50;99.90;;;;;;4975953;28;20433;-80
2022/01/30 13:21:23;;;;;;;0.30;0.20;;;6.40;99.90;;;;;;4976194;28;20460;-80
2022/01/30 13:23:50;;;;;;;0.30;0.30;;;6.30;99.90;;;;;;4976119;28;20508;-80
2022/01/30 13:26:29;;;;;;;0.30;0.20;;;6.30;99.90;;;;;;4975830;28;20466;-80
2022/01/30 13:28:56;;;;;;;0.30;0.30;;;6.30;99.90;;;;;;4976032;28;20437;-80
2022/01/30 13:31:24;;;;;;;0.30;0.23;;;6.30;99.90;;;;;;4975720;28;20553;-80
2022/01/30 13:34:10;;;;;;;0.30;0.20;;;6.40;99.90;;;;;;4976002;28;20460;-80
2022/01/30 13:36:37;;;;;;;0.30;0.20;;;6.50;99.90;;;;;;4975974;28;20473;-81
2022/01/30 13:39:08;;;;;;;0.30;0.30;;;6.50;99.90;;;;;;4975916;28;20453;-80